CheckWX is a tool to help pilots better visualize weather data.  It is not intended as a substitute for an official pre-flight weather briefing.

00:02:47 UTC

KSFY METAR
Tri-Township Airport
Savanna, Illinois, USA
Current

28 mins ago

KSFY 162335Z AUTO 12006KT 7SM CLR 01/M01 A3021 RMK AO2
Observed
Nov-16 @ 23:35 UTC
Wind
  • 120° at 6 KTS
Visibility
7 SM
Flight Rules
VFR
Cloud Levels
  • Clear skies
Temperature
C / 34°F
Dewpoint
-1°C / 30°F
Humidity
87%
Altimeter
30.21" Hg
Pressure
1023.02 hPa
Previous

48 mins ago

KSFY 162315Z AUTO 00000KT 7SM CLR 01/M01 A3021 RMK AO2
Observed
Nov-16 @ 23:15 UTC
Visibility
7 SM
Flight Rules
VFR
Cloud Levels
  • Clear skies
Temperature
C / 34°F
Dewpoint
-1°C / 30°F
Humidity
87%
Altimeter
30.21" Hg
Pressure
1023.02 hPa
Previous

1 hour ago

KSFY 162255Z AUTO 00000KT 10SM CLR 01/M01 A3022 RMK AO2
Observed
Nov-16 @ 22:55 UTC
Visibility
10 SM
Flight Rules
VFR
Cloud Levels
  • Clear skies
Temperature
C / 34°F
Dewpoint
-1°C / 30°F
Humidity
87%
Altimeter
30.22" Hg
Pressure
1023.42 hPa